createdAt,value
2018-02-18T00:00:30.378Z,43.90
2018-02-18T00:01:33.673Z,37.05
2018-02-18T00:02:36.230Z,35.83
2018-02-18T00:03:39.542Z,35.92
2018-02-18T00:04:42.071Z,34.33
2018-02-18T00:05:45.371Z,34.50
2018-02-18T00:06:47.934Z,35.22
2018-02-18T00:07:50.457Z,36.45
2018-02-18T00:08:52.989Z,30.73
2018-02-18T00:09:55.513Z,34.90
2018-02-18T00:10:58.843Z,31.10
2018-02-18T00:12:01.384Z,34.08
2018-02-18T00:13:03.911Z,35.80
2018-02-18T00:14:10.070Z,33.28
2018-02-18T00:15:12.589Z,39.00
2018-02-18T00:16:15.145Z,39.95
2018-02-18T00:17:17.705Z,44.60
2018-02-18T00:18:20.240Z,37.22
2018-02-18T00:19:22.762Z,34.10
2018-02-18T00:20:25.287Z,39.83
2018-02-18T00:21:28.611Z,36.50
2018-02-18T00:22:31.156Z,33.45
2018-02-18T00:23:33.682Z,35.22
2018-02-18T00:24:36.258Z,33.28
2018-02-18T00:25:38.783Z,34.75
2018-02-18T00:26:41.313Z,36.53
2018-02-18T00:27:43.838Z,34.53
2018-02-18T00:28:46.366Z,43.90
2018-02-18T00:29:48.922Z,36.22
2018-02-18T00:30:51.459Z,39.42
2018-02-18T00:31:54.755Z,31.73
2018-02-18T00:32:58.055Z,35.28
2018-02-18T00:34:00.572Z,38.42
2018-02-18T00:35:03.130Z,30.40
2018-02-18T00:36:05.654Z,34.08
2018-02-18T00:37:08.186Z,38.28
2018-02-18T00:38:10.706Z,33.35
2018-02-18T00:39:13.270Z,32.55
2018-02-18T00:40:15.838Z,35.13
2018-02-18T00:41:18.398Z,37.80
2018-02-18T00:42:20.923Z,31.37
2018-02-18T00:43:24.223Z,33.10
2018-02-18T00:44:27.563Z,30.17
2018-02-18T00:45:30.093Z,39.47
2018-02-18T00:46:32.627Z,31.45
2018-02-18T00:47:35.918Z,30.95
2018-02-18T00:48:39.251Z,39.30
2018-02-18T00:49:41.774Z,40.92
2018-02-18T00:50:44.332Z,31.20
2018-02-18T00:51:47.648Z,30.58
2018-02-18T00:52:50.165Z,37.95
2018-02-18T00:53:52.693Z,35.97
2018-02-18T00:54:55.220Z,30.23
2018-02-18T00:55:58.541Z,36.60
2018-02-18T00:57:01.078Z,39.45
2018-02-18T00:58:03.607Z,33.10
2018-02-18T00:59:06.141Z,43.55
2018-02-18T01:00:08.701Z,37.97
2018-02-18T01:01:11.237Z,40.25
2018-02-18T01:02:14.574Z,34.80
2018-02-18T01:03:17.102Z,35.08
2018-02-18T01:04:19.642Z,30.90
2018-02-18T01:05:22.958Z,39.63
2018-02-18T01:06:25.481Z,34.50
2018-02-18T01:07:28.033Z,37.13
2018-02-18T01:08:30.557Z,35.92
2018-02-18T01:09:33.081Z,31.25
2018-02-18T01:10:35.604Z,30.73
2018-02-18T01:11:38.168Z,34.35
2018-02-18T01:12:40.709Z,33.47
2018-02-18T01:13:43.248Z,36.30
2018-02-18T01:14:46.533Z,37.60
2018-02-18T01:15:49.820Z,32.97
2018-02-18T01:16:53.141Z,31.83
2018-02-18T01:17:55.677Z,35.60
2018-02-18T01:18:58.968Z,37.22
2018-02-18T01:20:01.494Z,35.83
2018-02-18T01:21:04.022Z,31.62
2018-02-18T01:22:06.591Z,29.58
2018-02-18T01:23:09.178Z,40.45
2018-02-18T01:24:11.711Z,28.58
2018-02-18T01:25:14.234Z,27.87
2018-02-18T01:26:16.766Z,31.70
2018-02-18T01:27:19.298Z,31.55
2018-02-18T01:28:21.868Z,32.78
2018-02-18T01:29:24.415Z,40.72
2018-02-18T01:30:27.725Z,32.63
2018-02-18T01:31:30.258Z,41.25
2018-02-18T01:32:32.783Z,39.72
2018-02-18T01:33:35.341Z,34.03
2018-02-18T01:34:37.873Z,35.33
2018-02-18T01:35:41.168Z,32.35
2018-02-18T01:36:43.689Z,35.17
2018-02-18T01:37:46.218Z,34.88
2018-02-18T01:38:48.786Z,34.28
2018-02-18T01:39:51.308Z,34.92
2018-02-18T01:40:53.833Z,33.78
2018-02-18T01:41:56.365Z,33.25
2018-02-18T01:42:58.930Z,31.77
2018-02-18T01:44:01.479Z,27.23
2018-02-18T01:45:04.773Z,31.48
2018-02-18T01:46:07.301Z,35.08
2018-02-18T01:47:09.849Z,34.58
2018-02-18T01:48:12.422Z,32.92
2018-02-18T01:49:14.989Z,38.25
2018-02-18T01:50:29.450Z,39.22
2018-02-18T01:51:31.982Z,34.78
2018-02-18T01:52:34.510Z,30.85
2018-02-18T01:53:37.851Z,34.33
2018-02-18T01:54:40.378Z,32.72
2018-02-18T01:55:42.900Z,30.08
2018-02-18T01:56:45.418Z,27.85
2018-02-18T01:57:47.937Z,31.30
2018-02-18T01:58:50.501Z,32.33
2018-02-18T01:59:53.065Z,31.42
2018-02-18T02:00:55.614Z,32.63
2018-02-18T02:01:58.136Z,42.03
2018-02-18T02:03:01.430Z,38.65
2018-02-18T02:04:03.958Z,32.83
2018-02-18T02:05:07.304Z,33.22
2018-02-18T02:06:09.831Z,37.50
2018-02-18T02:07:13.132Z,34.97
2018-02-18T02:08:15.654Z,34.13
2018-02-18T02:09:18.179Z,32.45
2018-02-18T02:10:20.750Z,37.25
2018-02-18T02:11:23.274Z,32.97
2018-02-18T02:12:26.565Z,32.67
2018-02-18T02:13:29.854Z,30.45
2018-02-18T02:14:32.377Z,33.75
2018-02-18T02:15:34.945Z,36.05
2018-02-18T02:16:37.467Z,34.30
2018-02-18T02:17:39.994Z,37.30
2018-02-18T02:18:42.508Z,34.05
2018-02-18T02:19:45.036Z,29.92
2018-02-18T02:20:48.349Z,38.78
2018-02-18T02:21:50.870Z,37.38
2018-02-18T02:22:53.398Z,31.73
2018-02-18T02:23:55.922Z,26.95
2018-02-18T02:24:59.205Z,28.30
2018-02-18T02:26:02.526Z,34.15
2018-02-18T02:27:05.050Z,37.53
2018-02-18T02:29:17.440Z,28.35
2018-02-18T02:30:19.966Z,30.67
2018-02-18T02:31:23.364Z,24.60
2018-02-18T02:32:25.897Z,24.75
2018-02-18T02:33:28.458Z,22.08
2018-02-18T02:34:31.024Z,25.83
2018-02-18T02:35:33.555Z,23.95
2018-02-18T02:36:36.874Z,21.80
2018-02-18T02:37:39.402Z,26.48
2018-02-18T02:38:41.955Z,23.25
2018-02-18T02:39:44.529Z,24.63
2018-02-18T02:40:47.055Z,21.17
2018-02-18T02:41:49.576Z,20.58
2018-02-18T02:42:52.878Z,19.00
2018-02-18T02:43:56.166Z,25.88
2018-02-18T02:44:58.721Z,22.10
2018-02-18T02:46:02.015Z,16.20
2018-02-18T02:47:04.546Z,23.70
2018-02-18T02:48:07.066Z,19.17
2018-02-18T02:49:09.624Z,24.55
2018-02-18T02:50:12.199Z,20.58
2018-02-18T02:51:14.736Z,23.40
2018-02-18T02:52:18.101Z,27.95
2018-02-18T02:53:20.590Z,23.52
2018-02-18T02:54:23.873Z,26.60
2018-02-18T02:56:36.194Z,22.87
2018-02-18T02:57:38.711Z,24.90
2018-02-18T02:58:41.250Z,22.62
2018-02-18T02:59:43.815Z,21.33
2018-02-18T03:00:46.371Z,23.87
2018-02-18T03:01:48.928Z,21.27
2018-02-18T03:02:51.467Z,22.13
2018-02-18T03:03:54.811Z,23.55
2018-02-18T03:04:57.333Z,19.83
2018-02-18T03:05:59.861Z,15.90
2018-02-18T03:07:02.387Z,16.33
2018-02-18T03:08:04.925Z,22.45
2018-02-18T03:09:08.249Z,14.93
2018-02-18T03:10:10.770Z,16.40
2018-02-18T03:11:14.048Z,20.23
2018-02-18T03:12:17.378Z,22.73
2018-02-18T03:13:19.913Z,17.17
2018-02-18T03:14:22.436Z,19.30
2018-02-18T03:15:25.112Z,17.17
2018-02-18T03:16:27.655Z,16.67
2018-02-18T03:17:30.378Z,16.80
2018-02-18T03:18:33.702Z,15.82
2018-02-18T03:19:36.217Z,20.37
2018-02-18T03:20:39.517Z,15.40
2018-02-18T03:21:42.810Z,11.07
2018-02-18T03:22:45.333Z,21.75
2018-02-18T03:23:47.905Z,22.00
2018-02-18T03:24:50.432Z,21.12
2018-02-18T03:25:52.954Z,23.33
2018-02-18T03:26:56.237Z,20.55
2018-02-18T03:27:59.526Z,18.27
2018-02-18T03:29:02.861Z,19.20
2018-02-18T03:30:05.390Z,24.52
2018-02-18T03:31:07.915Z,15.68
2018-02-18T03:32:10.441Z,21.17
2018-02-18T03:33:12.968Z,19.20
2018-02-18T03:34:16.288Z,17.45
2018-02-18T03:35:18.861Z,16.02
2018-02-18T03:36:22.125Z,22.45
2018-02-18T03:37:24.649Z,15.85
2018-02-18T03:38:27.173Z,24.85
2018-02-18T03:39:29.721Z,15.68
2018-02-18T03:40:32.286Z,14.80
2018-02-18T03:41:34.818Z,14.52
2018-02-18T03:42:37.341Z,15.25
2018-02-18T03:43:40.043Z,13.38
2018-02-18T03:44:42.588Z,14.43
2018-02-18T03:45:45.142Z,13.38
2018-02-18T03:46:47.653Z,17.35
2018-02-18T03:47:50.175Z,15.10
2018-02-18T03:48:52.698Z,9.15
2018-02-18T03:49:56.006Z,10.30
2018-02-18T03:50:58.565Z,14.50
2018-02-18T03:52:01.090Z,12.13
2018-02-18T03:53:03.621Z,19.00
2018-02-18T03:54:06.138Z,10.52
2018-02-18T03:55:08.653Z,11.40
2018-02-18T03:56:12.088Z,12.15
2018-02-18T03:57:14.658Z,15.25
2018-02-18T03:58:17.185Z,9.63
2018-02-18T03:59:19.717Z,11.43
2018-02-18T04:00:22.241Z,11.20
2018-02-18T04:01:24.769Z,9.75
2018-02-18T04:02:27.325Z,11.65
2018-02-18T04:03:29.841Z,11.52
2018-02-18T04:04:32.361Z,10.88
2018-02-18T04:05:34.886Z,9.57
2018-02-18T04:06:37.411Z,11.88
2018-02-18T04:07:39.975Z,14.27
2018-02-18T04:08:42.495Z,9.77
2018-02-18T04:09:45.781Z,11.98
2018-02-18T04:10:49.110Z,10.13
2018-02-18T04:11:51.630Z,11.30
2018-02-18T04:12:54.943Z,9.38
2018-02-18T04:13:57.462Z,9.25
2018-02-18T04:15:00.011Z,13.23
2018-02-18T04:16:02.527Z,15.70
2018-02-18T04:17:05.054Z,12.25
2018-02-18T04:18:07.578Z,9.70
2018-02-18T04:19:10.093Z,14.65
2018-02-18T04:20:12.651Z,10.93
2018-02-18T04:21:15.185Z,21.15
2018-02-18T04:22:17.716Z,17.77
2018-02-18T04:23:21.041Z,20.67
2018-02-18T04:24:23.580Z,14.00
2018-02-18T04:25:26.106Z,13.80
2018-02-18T04:26:28.631Z,18.02
2018-02-18T04:27:31.190Z,28.27
2018-02-18T04:28:33.717Z,13.95
2018-02-18T04:29:37.033Z,16.83
2018-02-18T04:30:39.557Z,25.42
2018-02-18T04:31:42.084Z,21.70
2018-02-18T04:32:44.637Z,18.35
2018-02-18T04:33:47.153Z,25.92
2018-02-18T04:34:49.684Z,24.75
2018-02-18T04:35:52.210Z,23.98
2018-02-18T04:36:55.541Z,23.55
2018-02-18T04:37:58.062Z,25.67
2018-02-18T04:39:01.389Z,23.67
2018-02-18T04:40:03.905Z,23.58
2018-02-18T04:41:07.201Z,23.23
2018-02-18T04:42:09.726Z,22.48
2018-02-18T04:43:12.265Z,23.15
2018-02-18T04:44:14.817Z,22.75
2018-02-18T04:45:17.340Z,27.30
2018-02-18T04:46:20.628Z,23.45
2018-02-18T04:47:23.928Z,25.85
2018-02-18T04:48:26.466Z,25.27
2018-02-18T04:49:29.041Z,20.80
2018-02-18T04:50:31.570Z,24.48
2018-02-18T04:51:34.097Z,26.12
2018-02-18T04:52:36.629Z,26.73
2018-02-18T04:53:39.154Z,23.35
2018-02-18T04:54:41.716Z,25.90
2018-02-18T04:55:44.271Z,19.77
2018-02-18T04:56:46.794Z,22.98
2018-02-18T04:57:49.326Z,16.10
2018-02-18T04:58:51.888Z,21.15
2018-02-18T04:59:54.410Z,15.93
2018-02-18T05:00:57.704Z,22.25
2018-02-18T05:02:00.993Z,23.55
2018-02-18T05:03:03.522Z,22.55
2018-02-18T05:04:06.099Z,26.40
2018-02-18T05:05:08.619Z,14.95
2018-02-18T05:06:11.306Z,22.45
2018-02-18T05:07:13.841Z,25.50
2018-02-18T05:08:16.369Z,24.23
2018-02-18T05:09:18.931Z,13.27
2018-02-18T05:10:21.502Z,14.32
2018-02-18T05:11:24.030Z,16.83
2018-02-18T05:12:26.557Z,18.73
2018-02-18T05:13:29.836Z,17.58
2018-02-18T05:14:33.131Z,16.05
2018-02-18T05:15:35.684Z,16.62
2018-02-18T05:16:38.977Z,15.38
2018-02-18T05:17:41.493Z,17.05
2018-02-18T05:18:44.014Z,17.10
2018-02-18T05:19:46.570Z,15.52
2018-02-18T05:20:49.868Z,11.65
2018-02-18T05:21:52.431Z,15.82
2018-02-18T05:22:54.955Z,12.30
2018-02-18T05:23:57.525Z,18.75
2018-02-18T05:25:00.042Z,13.88
2018-02-18T05:26:02.569Z,18.62
2018-02-18T05:27:05.849Z,16.73
2018-02-18T05:28:08.371Z,16.08
2018-02-18T05:29:10.936Z,15.90
2018-02-18T05:30:13.467Z,25.48
2018-02-18T05:31:16.760Z,13.82
2018-02-18T05:32:19.286Z,16.67
2018-02-18T05:33:21.814Z,17.00
2018-02-18T05:34:24.372Z,18.75
2018-02-18T05:35:26.919Z,15.65
2018-02-18T05:36:29.486Z,23.83
2018-02-18T05:37:32.018Z,21.35
2018-02-18T05:38:34.574Z,23.27
2018-02-18T05:39:37.202Z,21.58
2018-02-18T05:40:39.773Z,25.27
2018-02-18T05:41:42.298Z,32.55
2018-02-18T05:42:45.590Z,25.12
2018-02-18T05:43:48.909Z,24.20
2018-02-18T05:44:51.472Z,35.75
2018-02-18T05:45:54.003Z,34.08
2018-02-18T05:46:57.303Z,27.42
2018-02-18T05:47:59.842Z,31.40
2018-02-18T05:49:02.364Z,36.67
2018-02-18T05:50:06.533Z,34.72
2018-02-18T05:51:09.818Z,28.27
2018-02-18T05:52:13.114Z,32.70
2018-02-18T05:53:15.638Z,28.25
2018-02-18T05:54:18.152Z,30.35
2018-02-18T05:55:20.713Z,32.80
2018-02-18T05:56:23.248Z,27.98
2018-02-18T05:57:26.586Z,27.13
2018-02-18T05:58:29.139Z,28.50
2018-02-18T05:59:31.662Z,28.98
2018-02-18T06:00:34.201Z,29.55
2018-02-18T06:01:36.735Z,21.87
2018-02-18T06:02:39.301Z,27.35
2018-02-18T06:03:41.827Z,24.92
2018-02-18T06:04:44.354Z,24.52
2018-02-18T06:05:47.072Z,22.95
2018-02-18T06:06:50.353Z,25.58
2018-02-18T06:07:53.684Z,24.90
2018-02-18T06:08:56.205Z,26.17
2018-02-18T06:09:59.497Z,30.85
2018-02-18T06:11:02.830Z,32.08
2018-02-18T06:12:05.350Z,23.60
2018-02-18T06:13:08.642Z,27.15
2018-02-18T06:14:11.199Z,21.95
2018-02-18T06:15:14.495Z,21.50
2018-02-18T06:16:17.054Z,27.52
2018-02-18T06:17:20.382Z,26.98
2018-02-18T06:18:22.915Z,18.02
2018-02-18T06:19:25.443Z,18.60
2018-02-18T06:20:27.970Z,22.37
2018-02-18T06:21:31.278Z,27.30
2018-02-18T06:22:33.862Z,20.58
2018-02-18T06:23:36.469Z,17.20
2018-02-18T06:24:38.997Z,20.35
2018-02-18T06:25:41.516Z,19.45
2018-02-18T06:26:44.049Z,23.12
2018-02-18T06:27:47.370Z,20.58
2018-02-18T06:28:49.888Z,28.30
2018-02-18T06:29:52.414Z,26.85
2018-02-18T06:30:54.972Z,25.95
2018-02-18T06:31:57.493Z,19.87
2018-02-18T06:33:00.789Z,28.65
2018-02-18T06:34:03.321Z,24.15
2018-02-18T06:35:05.844Z,20.30
2018-02-18T06:36:08.408Z,17.85
2018-02-18T06:37:10.961Z,20.92
2018-02-18T06:38:13.544Z,28.23
2018-02-18T06:39:16.831Z,21.20
2018-02-18T06:40:19.355Z,25.80
2018-02-18T06:41:22.646Z,25.00
2018-02-18T06:42:25.933Z,21.05
2018-02-18T06:43:29.259Z,20.95
2018-02-18T06:44:31.780Z,20.20
2018-02-18T06:45:35.077Z,20.83
2018-02-18T06:46:37.609Z,20.92
2018-02-18T06:47:40.298Z,24.65
2018-02-18T06:48:43.627Z,22.70
2018-02-18T06:49:46.153Z,22.20
2018-02-18T06:50:49.465Z,21.48
2018-02-18T06:51:52.028Z,19.75
2018-02-18T06:52:54.544Z,25.52
2018-02-18T06:53:57.105Z,19.33
2018-02-18T06:54:59.624Z,20.75
2018-02-18T06:56:02.149Z,23.48
2018-02-18T06:57:04.679Z,22.30
2018-02-18T06:58:07.201Z,24.15
2018-02-18T06:59:10.532Z,18.10
2018-02-18T07:00:13.061Z,23.20
2018-02-18T07:01:15.595Z,31.17
2018-02-18T07:02:18.125Z,34.08
2018-02-18T07:03:20.654Z,28.42
2018-02-18T07:04:23.214Z,22.75
2018-02-18T07:05:26.502Z,30.55
2018-02-18T07:06:29.808Z,21.30
2018-02-18T07:07:32.334Z,26.85
2018-02-18T07:08:35.681Z,25.37
2018-02-18T07:09:38.197Z,26.65
2018-02-18T07:10:41.526Z,18.15
2018-02-18T07:11:44.054Z,21.42
2018-02-18T07:12:47.346Z,22.67
2018-02-18T07:13:49.926Z,30.30
2018-02-18T07:14:52.455Z,35.45
2018-02-18T07:15:55.751Z,36.67
2018-02-18T07:16:59.057Z,48.53
2018-02-18T07:18:01.583Z,37.80
2018-02-18T07:19:04.158Z,42.78
2018-02-18T07:20:07.453Z,30.58
2018-02-18T07:21:10.737Z,27.92
2018-02-18T07:22:14.031Z,26.73
2018-02-18T07:23:16.561Z,31.27
2018-02-18T07:24:19.123Z,24.27
2018-02-18T07:25:21.649Z,19.70
2018-02-18T07:26:24.173Z,24.70
2018-02-18T07:27:27.465Z,25.92
2018-02-18T07:28:30.769Z,39.20
2018-02-18T07:29:33.378Z,23.08
2018-02-18T07:30:35.907Z,23.40
2018-02-18T07:31:38.451Z,23.62
2018-02-18T07:32:41.750Z,21.40
2018-02-18T07:33:44.281Z,20.58
2018-02-18T07:34:46.860Z,27.95
2018-02-18T07:35:50.157Z,34.72
2018-02-18T07:36:53.454Z,28.10
2018-02-18T07:37:55.982Z,32.85
2018-02-18T07:38:58.514Z,25.98
2018-02-18T07:40:01.074Z,29.27
2018-02-18T07:41:03.602Z,26.60
2018-02-18T07:42:06.894Z,28.77
2018-02-18T07:43:09.451Z,27.62
2018-02-18T07:44:12.740Z,29.92
2018-02-18T07:45:16.079Z,27.62
2018-02-18T07:46:18.608Z,34.80
2018-02-18T07:47:21.144Z,26.70
2018-02-18T07:48:24.436Z,29.70
2018-02-18T07:49:27.725Z,30.12
2018-02-18T07:50:30.281Z,31.30
2018-02-18T07:51:33.651Z,26.55
2018-02-18T07:52:36.216Z,27.95
2018-02-18T07:53:38.754Z,28.23
2018-02-18T07:54:41.287Z,26.35
2018-02-18T07:55:43.813Z,32.72
2018-02-18T07:56:46.386Z,31.52
2018-02-18T07:57:48.910Z,30.88
2018-02-18T07:58:51.449Z,31.95
2018-02-18T07:59:53.972Z,36.83
2018-02-18T08:00:56.500Z,29.08
2018-02-18T08:01:59.068Z,33.05
2018-02-18T08:03:01.628Z,29.05
2018-02-18T08:04:04.177Z,26.87
2018-02-18T08:05:06.702Z,29.90
2018-02-18T08:06:09.238Z,34.85
2018-02-18T08:07:11.819Z,32.03
2018-02-18T08:08:14.350Z,30.08
2018-02-18T08:09:16.870Z,35.08
2018-02-18T08:10:19.398Z,30.05
2018-02-18T08:11:21.958Z,26.62
2018-02-18T08:12:24.491Z,35.60
2018-02-18T08:13:27.809Z,35.50
2018-02-18T08:14:30.338Z,27.10
2018-02-18T08:15:33.647Z,25.85
2018-02-18T08:16:36.206Z,28.70
2018-02-18T08:17:38.735Z,29.67
2018-02-18T08:18:41.279Z,29.17
2018-02-18T08:19:43.805Z,30.08
2018-02-18T08:20:46.476Z,32.75
2018-02-18T08:21:49.036Z,26.50
2018-02-18T08:22:51.565Z,29.92
2018-02-18T08:23:54.089Z,29.25
2018-02-18T08:24:56.628Z,26.33
2018-02-18T08:25:59.921Z,35.92
2018-02-18T08:27:02.487Z,26.62
2018-02-18T08:28:05.013Z,32.10
2018-02-18T08:29:07.540Z,29.80
2018-02-18T08:30:10.124Z,23.95
2018-02-18T08:31:13.418Z,32.42
2018-02-18T08:32:15.942Z,31.65
2018-02-18T08:33:18.524Z,25.67
2018-02-18T08:34:21.053Z,29.90
2018-02-18T08:35:24.348Z,30.12
2018-02-18T08:36:27.630Z,24.95
2018-02-18T08:37:30.152Z,31.60
2018-02-18T08:38:32.713Z,31.10
2018-02-18T08:39:35.237Z,32.60
2018-02-18T08:40:37.764Z,29.60
2018-02-18T08:41:40.293Z,26.92
2018-02-18T08:42:42.821Z,31.58
2018-02-18T08:43:46.149Z,36.22
2018-02-18T08:44:48.690Z,34.78
2018-02-18T08:45:51.218Z,40.10
2018-02-18T08:46:53.746Z,29.67
2018-02-18T08:47:56.293Z,28.90
2018-02-18T08:48:58.861Z,35.47
2018-02-18T08:50:01.391Z,33.88
2018-02-18T08:51:04.686Z,36.63
2018-02-18T08:52:07.978Z,31.92
2018-02-18T08:53:11.266Z,40.28
2018-02-18T08:54:13.821Z,36.25
2018-02-18T08:55:17.113Z,38.78
2018-02-18T08:56:20.402Z,30.40
2018-02-18T08:57:22.935Z,36.75
2018-02-18T08:58:25.464Z,33.75
2018-02-18T08:59:28.028Z,41.90
2018-02-18T09:00:30.578Z,43.22
2018-02-18T09:01:33.113Z,43.50
2018-02-18T09:02:36.438Z,30.62
2018-02-18T09:03:39.064Z,34.10
2018-02-18T09:04:42.362Z,31.42
2018-02-18T09:05:45.011Z,36.15
2018-02-18T09:06:47.577Z,31.35
2018-02-18T09:07:50.133Z,32.35
2018-02-18T09:08:52.658Z,29.20
2018-02-18T09:09:55.186Z,31.00
2018-02-18T09:10:57.831Z,30.30
2018-02-18T09:12:00.404Z,33.75
2018-02-18T09:13:02.961Z,36.65
2018-02-18T09:14:05.490Z,29.83
2018-02-18T09:15:08.017Z,40.53
2018-02-18T09:16:11.739Z,44.35
2018-02-18T09:17:14.314Z,34.53
2018-02-18T09:18:16.836Z,35.22
2018-02-18T09:19:19.385Z,35.40
2018-02-18T09:20:21.923Z,36.25
2018-02-18T09:21:24.453Z,32.15
2018-02-18T09:22:27.793Z,31.62
2018-02-18T09:23:30.325Z,37.08
2018-02-18T09:24:32.858Z,41.60
2018-02-18T09:25:36.146Z,34.80
2018-02-18T09:26:39.424Z,31.67
2018-02-18T09:27:42.753Z,44.08
2018-02-18T09:28:45.286Z,31.00
2018-02-18T09:29:48.571Z,40.95
2018-02-18T09:30:51.925Z,29.55
2018-02-18T09:31:54.451Z,33.03
2018-02-18T09:32:56.974Z,33.58
2018-02-18T09:34:00.267Z,38.95
2018-02-18T09:35:03.555Z,31.42
2018-02-18T09:36:06.873Z,28.58
2018-02-18T09:37:09.437Z,38.92
2018-02-18T09:38:12.001Z,37.85
2018-02-18T09:39:14.546Z,35.20
2018-02-18T09:40:17.072Z,34.47
2018-02-18T09:41:19.598Z,36.15
2018-02-18T09:42:22.124Z,33.15
2018-02-18T09:43:25.467Z,30.48
2018-02-18T09:44:28.025Z,37.00
2018-02-18T09:45:30.552Z,32.67
2018-02-18T09:46:33.850Z,32.85
2018-02-18T09:47:36.372Z,32.08
2018-02-18T09:48:39.661Z,30.37
2018-02-18T09:49:42.242Z,32.38
2018-02-18T09:50:45.542Z,34.45
2018-02-18T09:51:48.844Z,34.25
2018-02-18T09:52:51.361Z,32.33
2018-02-18T09:53:53.892Z,34.50
2018-02-18T09:54:56.456Z,37.85
2018-02-18T09:55:59.086Z,27.98
2018-02-18T09:57:02.378Z,24.08
2018-02-18T09:58:05.665Z,29.37
2018-02-18T09:59:08.230Z,30.75
2018-02-18T10:00:10.790Z,23.55
2018-02-18T10:01:14.074Z,32.35
2018-02-18T10:02:17.365Z,24.23
2018-02-18T10:03:19.899Z,26.85
2018-02-18T10:04:22.433Z,24.87
2018-02-18T10:05:25.020Z,26.15
2018-02-18T10:06:27.549Z,32.70
2018-02-18T10:07:30.080Z,24.92
2018-02-18T10:08:33.391Z,29.27
2018-02-18T10:09:35.916Z,21.92
2018-02-18T10:10:38.474Z,26.80
2018-02-18T10:11:40.998Z,22.50
2018-02-18T10:12:43.573Z,25.00
2018-02-18T10:13:46.094Z,29.58
2018-02-18T10:14:49.387Z,22.60
2018-02-18T10:15:52.679Z,31.05
2018-02-18T10:16:55.206Z,23.50
2018-02-18T10:17:57.758Z,24.00
2018-02-18T10:19:00.288Z,20.67
2018-02-18T10:20:02.814Z,20.55
2018-02-18T10:21:05.336Z,23.30
2018-02-18T10:22:07.867Z,26.42
2018-02-18T10:23:11.192Z,26.42
2018-02-18T10:24:13.716Z,26.37
2018-02-18T10:25:17.107Z,26.87
2018-02-18T10:26:19.580Z,27.75
2018-02-18T10:27:22.101Z,25.25
2018-02-18T10:28:24.641Z,26.92
2018-02-18T10:29:27.200Z,22.77
2018-02-18T10:30:29.774Z,19.67
2018-02-18T10:31:32.303Z,21.35
2018-02-18T10:32:34.838Z,19.50
2018-02-18T10:33:37.367Z,23.33
2018-02-18T10:34:39.898Z,17.67
2018-02-18T10:35:43.314Z,23.85
2018-02-18T10:36:45.833Z,23.38
2018-02-18T10:37:48.588Z,25.05
2018-02-18T10:38:51.116Z,19.30
2018-02-18T10:39:53.655Z,18.77
2018-02-18T10:40:56.970Z,20.58
2018-02-18T10:41:59.494Z,22.48
2018-02-18T10:43:02.797Z,20.77
2018-02-18T10:44:05.317Z,23.27
2018-02-18T10:45:07.889Z,15.77
2018-02-18T10:46:10.617Z,19.95
2018-02-18T10:47:13.137Z,16.05
2018-02-18T10:48:15.662Z,40.70
2018-02-18T10:49:18.190Z,25.88
2018-02-18T10:50:21.527Z,47.95
2018-02-18T10:51:24.057Z,21.55
2018-02-18T10:52:26.576Z,25.55
2018-02-18T10:53:29.157Z,21.42
2018-02-18T10:54:31.680Z,16.62
2018-02-18T10:55:34.200Z,20.95
2018-02-18T10:56:37.502Z,15.75
2018-02-18T10:57:40.046Z,23.08
2018-02-18T10:58:43.377Z,20.58
2018-02-18T10:59:46.081Z,20.73
2018-02-18T11:00:48.613Z,17.00
2018-02-18T11:01:51.897Z,13.80
2018-02-18T11:02:54.434Z,15.52
2018-02-18T11:03:56.998Z,15.82
2018-02-18T11:04:59.522Z,16.15
2018-02-18T11:06:02.051Z,20.23
2018-02-18T11:07:04.577Z,19.05
2018-02-18T11:08:07.882Z,16.98
2018-02-18T11:09:10.445Z,15.57
2018-02-18T11:10:13.739Z,16.73
2018-02-18T11:11:16.264Z,16.50
2018-02-18T11:12:18.790Z,14.60
2018-02-18T11:13:21.358Z,12.75
2018-02-18T11:14:23.893Z,15.05
2018-02-18T11:15:27.179Z,14.23
2018-02-18T11:16:29.724Z,14.07
2018-02-18T11:17:33.020Z,17.45
2018-02-18T11:18:36.309Z,15.38
2018-02-18T11:19:39.608Z,13.85
2018-02-18T11:20:42.130Z,13.82
2018-02-18T11:21:44.774Z,14.90
2018-02-18T11:22:47.298Z,14.43
2018-02-18T11:23:49.859Z,17.80
2018-02-18T11:24:52.393Z,13.23
2018-02-18T11:25:54.986Z,12.98
2018-02-18T11:26:58.282Z,15.57
2018-02-18T11:28:00.806Z,12.00
2018-02-18T11:29:03.329Z,10.85
2018-02-18T11:30:05.842Z,10.98
2018-02-18T11:31:08.407Z,10.25
2018-02-18T11:32:10.916Z,13.30
2018-02-18T11:33:13.438Z,11.77
2018-02-18T11:34:15.965Z,18.42
2018-02-18T11:35:18.484Z,11.43
2018-02-18T11:36:21.034Z,11.25
2018-02-18T11:37:23.562Z,19.10
2018-02-18T11:38:26.118Z,19.37
2018-02-18T11:39:28.653Z,21.80
2018-02-18T11:40:31.957Z,21.92
2018-02-18T11:41:34.469Z,12.55
2018-02-18T11:42:36.990Z,12.90
2018-02-18T11:43:40.341Z,10.43
2018-02-18T11:44:42.862Z,10.02
2018-02-18T11:45:45.398Z,8.45
2018-02-18T11:46:47.938Z,11.25
2018-02-18T11:47:50.453Z,12.32
2018-02-18T11:48:53.022Z,7.57
2018-02-18T11:49:55.541Z,9.38
2018-02-18T11:50:58.063Z,10.98
2018-02-18T11:52:00.586Z,11.60
2018-02-18T11:53:03.874Z,12.80
2018-02-18T11:54:07.194Z,9.80
2018-02-18T11:55:09.729Z,7.47
2018-02-18T11:56:13.023Z,7.30
2018-02-18T11:57:15.556Z,13.25
2018-02-18T11:58:18.075Z,12.85
2018-02-18T11:59:20.626Z,11.65
2018-02-18T12:00:23.145Z,9.13
2018-02-18T12:01:25.686Z,10.85
2018-02-18T12:02:28.243Z,14.27
2018-02-18T12:03:30.856Z,14.15
2018-02-18T12:04:33.373Z,9.60
2018-02-18T12:05:36.040Z,13.77
2018-02-18T12:06:38.589Z,10.38
2018-02-18T12:07:41.109Z,16.50
2018-02-18T12:08:43.626Z,11.40
2018-02-18T12:09:46.168Z,12.20
2018-02-18T12:10:49.494Z,9.48
2018-02-18T12:11:52.026Z,11.43
2018-02-18T12:12:54.556Z,9.55
2018-02-18T12:13:57.080Z,11.57
2018-02-18T12:14:59.622Z,9.65
2018-02-18T12:16:02.913Z,8.98
2018-02-18T12:17:05.457Z,6.32
2018-02-18T12:18:08.784Z,9.45
2018-02-18T12:19:11.314Z,10.18
2018-02-18T12:20:14.635Z,9.63
2018-02-18T12:21:17.162Z,12.55
2018-02-18T12:22:20.462Z,12.25
2018-02-18T12:23:23.025Z,14.70
2018-02-18T12:24:26.313Z,7.10
2018-02-18T12:25:28.847Z,11.23
2018-02-18T12:26:31.361Z,8.30
2018-02-18T12:27:33.912Z,9.23
2018-02-18T12:28:36.442Z,19.73
2018-02-18T12:29:38.973Z,27.30
2018-02-18T12:30:41.505Z,15.15
2018-02-18T12:31:44.890Z,19.65
2018-02-18T12:32:48.224Z,12.77
2018-02-18T12:33:50.770Z,13.00
2018-02-18T12:34:53.303Z,13.30
2018-02-18T12:35:56.597Z,11.63
2018-02-18T12:36:59.153Z,16.95
2018-02-18T12:38:02.446Z,12.00
2018-02-18T12:39:04.982Z,8.07
2018-02-18T12:40:07.619Z,10.95
2018-02-18T12:41:10.147Z,7.70
2018-02-18T12:42:12.709Z,10.45
2018-02-18T12:43:15.998Z,9.93
2018-02-18T12:44:18.522Z,11.55
2018-02-18T12:45:21.051Z,6.93
2018-02-18T12:46:23.572Z,11.65
2018-02-18T12:47:26.143Z,13.90
2018-02-18T12:48:29.432Z,7.18
2018-02-18T12:49:32.772Z,10.45
2018-02-18T12:50:35.314Z,10.38
2018-02-18T12:51:37.854Z,20.65
2018-02-18T12:52:41.143Z,13.02
2018-02-18T12:53:44.424Z,11.05
2018-02-18T12:54:46.989Z,17.87
2018-02-18T12:55:50.289Z,11.10
2018-02-18T12:56:52.834Z,9.77
2018-02-18T12:57:56.174Z,9.48
2018-02-18T12:58:58.699Z,10.90
2018-02-18T13:00:01.991Z,10.60
2018-02-18T13:01:04.533Z,9.63
2018-02-18T13:02:07.866Z,12.55
2018-02-18T13:03:10.438Z,40.80
2018-02-18T13:04:12.989Z,14.90
2018-02-18T13:05:15.560Z,17.02
2018-02-18T13:06:18.085Z,14.13
2018-02-18T13:07:21.392Z,12.07
2018-02-18T13:08:23.928Z,10.50
2018-02-18T13:09:27.231Z,8.93
2018-02-18T13:10:30.566Z,10.95
2018-02-18T13:11:33.099Z,10.40
2018-02-18T13:12:35.626Z,14.50
2018-02-18T13:13:38.917Z,11.10
2018-02-18T13:14:42.204Z,11.32
2018-02-18T13:15:45.533Z,8.77
2018-02-18T13:16:48.086Z,11.82
2018-02-18T13:17:50.746Z,10.05
2018-02-18T13:18:53.271Z,12.02
2018-02-18T13:19:55.798Z,10.13
2018-02-18T13:20:58.404Z,13.30
2018-02-18T13:22:01.060Z,19.20
2018-02-18T13:23:03.596Z,7.75
2018-02-18T13:24:06.140Z,14.23
2018-02-18T13:25:08.676Z,15.57
2018-02-18T13:26:11.233Z,10.40
2018-02-18T13:27:13.793Z,6.60
2018-02-18T13:28:16.310Z,6.50
2018-02-18T13:29:18.876Z,6.78
2018-02-18T13:30:21.401Z,9.60
2018-02-18T13:31:23.922Z,12.05
2018-02-18T13:32:26.500Z,10.80